createdAt,value
2023-04-30T00:03:01.884Z,102367.56
2023-04-30T00:08:05.150Z,102366.88
2023-04-30T00:13:08.509Z,102367.34
2023-04-30T00:18:12.866Z,102367.28
2023-04-30T00:23:15.929Z,102380.84
2023-04-30T00:28:18.780Z,102376.53
2023-04-30T00:33:23.045Z,102390.75
2023-04-30T00:38:26.100Z,102373.00
2023-04-30T00:43:29.148Z,102371.44
2023-04-30T00:48:33.429Z,102387.38
2023-04-30T00:53:36.424Z,102388.06
2023-04-30T00:58:39.374Z,102384.88
2023-04-30T01:03:44.786Z,102378.16
2023-04-30T01:08:48.536Z,102376.69
2023-04-30T01:14:01.050Z,102383.06
2023-04-30T01:19:11.818Z,102388.75
2023-04-30T01:24:32.978Z,102376.59
2023-04-30T01:29:39.152Z,102378.75
2023-04-30T01:34:42.071Z,102379.53
2023-04-30T01:39:58.426Z,102374.44
2023-04-30T01:45:16.182Z,102381.25
2023-04-30T01:50:30.844Z,102377.59
2023-04-30T01:55:38.841Z,102376.69
2023-04-30T02:00:43.648Z,102395.75
2023-04-30T02:05:46.615Z,102392.56
2023-04-30T02:10:49.787Z,102378.13
2023-04-30T02:15:54.159Z,102387.09
2023-04-30T02:20:57.408Z,102387.31
2023-04-30T02:26:00.496Z,102394.72
2023-04-30T02:31:04.942Z,102379.38
2023-04-30T02:36:08.587Z,102398.78
2023-04-30T02:41:11.685Z,102391.84
2023-04-30T02:46:16.924Z,102396.16
2023-04-30T02:51:20.250Z,102389.22
2023-04-30T02:56:23.322Z,102397.53
2023-04-30T03:01:27.725Z,102389.78
2023-04-30T03:06:31.399Z,102398.63
2023-04-30T03:11:37.494Z,102401.44
2023-04-30T03:16:42.244Z,102406.66
2023-04-30T03:21:45.504Z,102395.88
2023-04-30T03:26:48.817Z,102386.78
2023-04-30T03:31:53.638Z,102388.09
2023-04-30T03:36:56.701Z,102381.84
2023-04-30T03:42:01.730Z,102371.75
2023-04-30T03:47:06.264Z,102378.66
2023-04-30T03:52:09.747Z,102377.50
2023-04-30T03:57:14.033Z,102370.75
2023-04-30T04:02:18.461Z,102378.50
2023-04-30T04:07:21.503Z,102370.28
2023-04-30T04:12:24.674Z,102383.22
2023-04-30T04:17:29.559Z,102393.38
2023-04-30T04:22:32.665Z,102389.84
2023-04-30T04:27:35.711Z,102402.91
2023-04-30T04:32:49.624Z,102394.56
2023-04-30T04:37:53.180Z,102406.53
2023-04-30T04:42:56.298Z,102399.13
2023-04-30T04:48:00.802Z,102413.88
2023-04-30T04:53:03.969Z,102415.91
2023-04-30T04:58:06.908Z,102410.94
2023-04-30T05:03:11.650Z,102413.53
2023-04-30T05:08:14.617Z,102425.66
2023-04-30T05:13:17.723Z,102412.16
2023-04-30T05:18:22.225Z,102416.97
2023-04-30T05:23:25.725Z,102412.31
2023-04-30T05:28:28.654Z,102405.41
2023-04-30T05:33:33.740Z,102402.84
2023-04-30T05:38:36.659Z,102399.78
2023-04-30T05:43:39.759Z,102396.75
2023-04-30T05:48:44.171Z,102396.66
2023-04-30T05:53:47.120Z,102388.50
2023-04-30T05:58:51.102Z,102377.59
2023-04-30T06:03:55.665Z,102391.25
2023-04-30T06:08:58.810Z,102394.44
2023-04-30T06:14:01.929Z,102404.44
2023-04-30T06:19:06.319Z,102394.00
2023-04-30T06:24:09.479Z,102388.72
2023-04-30T06:29:12.421Z,102379.84
2023-04-30T06:34:16.783Z,102393.44
2023-04-30T06:39:19.753Z,102398.59
2023-04-30T06:44:22.711Z,102393.97
2023-04-30T06:49:27.261Z,102396.53
2023-04-30T06:54:30.424Z,102411.25
2023-04-30T06:59:33.911Z,102412.91
2023-04-30T07:04:38.310Z,102411.09
2023-04-30T07:09:41.445Z,102412.34
2023-04-30T07:14:44.848Z,102411.25
2023-04-30T07:19:51.808Z,102410.25
2023-04-30T07:24:54.774Z,102405.31
2023-04-30T07:29:57.841Z,102413.81
2023-04-30T07:35:02.151Z,102413.28
2023-04-30T07:40:06.211Z,102400.31
2023-04-30T07:45:10.036Z,102396.09
2023-04-30T07:50:14.919Z,102412.75
2023-04-30T07:55:17.863Z,102419.81
2023-04-30T08:00:21.091Z,102402.88
2023-04-30T08:05:25.515Z,102420.44
2023-04-30T08:10:28.785Z,102421.38
2023-04-30T08:15:31.691Z,102423.75
2023-04-30T08:20:38.452Z,102413.31
2023-04-30T08:25:41.786Z,102412.94
2023-04-30T08:30:44.752Z,102427.72
2023-04-30T08:35:49.556Z,102414.63
2023-04-30T08:41:04.738Z,102399.28
2023-04-30T08:46:08.664Z,102402.16
2023-04-30T08:51:14.012Z,102412.88
2023-04-30T08:56:17.106Z,102398.69
2023-04-30T09:01:21.302Z,102398.50
2023-04-30T09:06:27.259Z,102406.41
2023-04-30T09:11:31.766Z,102402.13
2023-04-30T09:16:47.204Z,102400.00
2023-04-30T09:21:51.696Z,102395.47
2023-04-30T09:26:55.016Z,102387.34
2023-04-30T09:32:09.642Z,102398.13
2023-04-30T09:37:14.527Z,102372.81
2023-04-30T09:42:18.314Z,102378.53
2023-04-30T09:47:22.073Z,102383.38
2023-04-30T09:52:26.878Z,102373.34
2023-04-30T09:57:36.235Z,102374.16
2023-04-30T10:02:41.123Z,102371.91
2023-04-30T10:07:45.800Z,102349.53
2023-04-30T10:12:52.366Z,102354.22
2023-04-30T10:18:01.361Z,102349.97
2023-04-30T10:23:07.235Z,102349.25
2023-04-30T10:28:11.729Z,102353.53
2023-04-30T10:33:24.363Z,102350.91
2023-04-30T10:38:32.662Z,102344.84
2023-04-30T10:43:37.902Z,102345.41
2023-04-30T10:48:40.973Z,102328.72
2023-04-30T10:53:47.258Z,102324.63
2023-04-30T10:58:53.172Z,102314.84
2023-04-30T11:04:07.541Z,102300.19
2023-04-30T11:09:12.253Z,102305.88
2023-04-30T11:14:23.080Z,102297.94
2023-04-30T11:19:26.234Z,102293.63
2023-04-30T11:25:03.745Z,102291.31
2023-04-30T11:30:13.227Z,102284.25
2023-04-30T11:35:19.812Z,102279.44
2023-04-30T11:40:24.339Z,102274.28
2023-04-30T11:45:27.513Z,102257.59
2023-04-30T11:50:35.105Z,102263.06
2023-04-30T11:55:41.751Z,102261.25
2023-04-30T12:00:44.861Z,102246.59
2023-04-30T12:05:48.565Z,102243.69
2023-04-30T12:10:53.049Z,102230.34
2023-04-30T12:16:00.446Z,102228.75
2023-04-30T12:21:04.368Z,102213.72
2023-04-30T12:26:08.895Z,102223.03
2023-04-30T12:31:12.110Z,102224.03
2023-04-30T12:36:15.212Z,102211.94
2023-04-30T12:41:21.608Z,102211.81
2023-04-30T12:46:29.620Z,102213.03
2023-04-30T12:51:36.262Z,102213.88
2023-04-30T12:56:40.890Z,102211.97
2023-04-30T13:01:46.380Z,102203.38
2023-04-30T13:06:52.196Z,102180.97
2023-04-30T13:11:56.570Z,102192.69
2023-04-30T13:16:59.719Z,102184.13
2023-04-30T13:22:03.063Z,102180.50
2023-04-30T13:27:08.018Z,102167.97
2023-04-30T13:32:11.093Z,102162.84
2023-04-30T13:37:14.143Z,102160.41
2023-04-30T13:42:18.696Z,102147.88
2023-04-30T13:47:22.480Z,102147.75
2023-04-30T13:52:25.533Z,102147.53
2023-04-30T13:57:32.783Z,102136.97
2023-04-30T14:02:35.960Z,102129.13
2023-04-30T14:07:39.104Z,102127.38
2023-04-30T14:12:43.547Z,102136.41
2023-04-30T14:17:46.602Z,102116.69
2023-04-30T14:22:49.677Z,102116.69
2023-04-30T14:27:54.016Z,102118.50
2023-04-30T14:32:57.407Z,102116.78
2023-04-30T14:38:00.439Z,102112.41
2023-04-30T14:43:05.227Z,102121.41
2023-04-30T14:48:08.323Z,102096.44
2023-04-30T14:53:11.693Z,102098.25
2023-04-30T14:58:16.082Z,102097.38
2023-04-30T15:03:19.232Z,102084.84
2023-04-30T15:08:22.319Z,102073.22
2023-04-30T15:13:26.725Z,102083.97
2023-04-30T15:18:29.930Z,102066.09
2023-04-30T15:23:33.693Z,102076.78
2023-04-30T15:28:38.119Z,102074.06
2023-04-30T15:33:42.258Z,102056.16
2023-04-30T15:38:45.458Z,102059.72
2023-04-30T15:43:49.844Z,102048.16
2023-04-30T15:48:52.857Z,102049.09
2023-04-30T15:53:56.494Z,102053.59
2023-04-30T15:59:01.143Z,102036.59
2023-04-30T16:04:04.389Z,102033.88
2023-04-30T16:09:08.855Z,102016.75
2023-04-30T16:14:13.213Z,102022.09
2023-04-30T16:19:17.338Z,102031.09
2023-04-30T16:24:20.293Z,102023.25
2023-04-30T16:29:24.610Z,102019.25
2023-04-30T16:34:27.607Z,102015.75
2023-04-30T16:39:30.694Z,102006.28
2023-04-30T16:44:35.093Z,101995.34
2023-04-30T16:49:38.168Z,102003.16
2023-04-30T16:54:41.296Z,101990.59
2023-04-30T16:59:46.833Z,101989.13
2023-04-30T17:04:49.886Z,101997.31
2023-04-30T17:09:54.191Z,101984.78
2023-04-30T17:14:59.131Z,101982.91
2023-04-30T17:20:02.137Z,101979.19
2023-04-30T17:25:06.178Z,101979.03
2023-04-30T17:30:11.123Z,101967.97
2023-04-30T17:35:14.443Z,101971.31
2023-04-30T17:40:17.676Z,101961.94
2023-04-30T17:45:22.299Z,101967.94
2023-04-30T17:50:25.345Z,101970.41
2023-04-30T17:55:28.376Z,101962.13
2023-04-30T18:00:32.811Z,101972.69
2023-04-30T18:05:36.052Z,101963.59
2023-04-30T18:10:39.395Z,101964.09
2023-04-30T18:15:43.784Z,101946.88
2023-04-30T18:20:46.873Z,101959.00
2023-04-30T18:25:50.116Z,101952.22
2023-04-30T18:30:58.050Z,101964.22
2023-04-30T18:36:05.352Z,101946.88
2023-04-30T18:41:08.762Z,101950.03
2023-04-30T18:46:13.220Z,101945.91
2023-04-30T18:51:16.992Z,101942.50
2023-04-30T18:56:19.924Z,101931.94
2023-04-30T19:01:27.259Z,101940.34
2023-04-30T19:06:33.528Z,101927.38
2023-04-30T19:11:36.742Z,101939.38
2023-04-30T19:16:41.111Z,101941.50
2023-04-30T19:21:44.090Z,101939.19
2023-04-30T19:26:47.217Z,101947.56
2023-04-30T19:31:51.774Z,101943.25
2023-04-30T19:36:55.482Z,101928.31
2023-04-30T19:41:59.066Z,101943.84
2023-04-30T19:47:04.268Z,101945.19
2023-04-30T19:52:08.807Z,101948.31
2023-04-30T19:57:11.888Z,101951.47
2023-04-30T20:02:16.442Z,101949.25
2023-04-30T20:07:20.605Z,101953.16
2023-04-30T20:12:23.795Z,101951.84
2023-04-30T20:17:28.453Z,101942.28
2023-04-30T20:22:31.481Z,101948.31
2023-04-30T20:27:34.852Z,101921.94
2023-04-30T20:32:39.290Z,101926.06
2023-04-30T20:37:45.353Z,101927.50
2023-04-30T20:42:51.605Z,101928.06
2023-04-30T20:47:56.061Z,101927.75
2023-04-30T20:53:02.449Z,101927.31
2023-04-30T20:58:09.309Z,101923.34
2023-04-30T21:03:14.926Z,101921.19
2023-04-30T21:08:18.029Z,101923.31
2023-04-30T21:13:21.031Z,101913.03
2023-04-30T21:18:27.678Z,101913.47
2023-04-30T21:23:31.010Z,101898.09
2023-04-30T21:28:34.465Z,101893.25
2023-04-30T21:33:39.580Z,101901.69
2023-04-30T21:38:42.684Z,101891.56
2023-04-30T21:43:45.673Z,101894.97
2023-04-30T21:48:50.021Z,101856.91
2023-04-30T21:53:52.940Z,101894.34
2023-04-30T21:58:55.999Z,101895.69
2023-04-30T22:04:00.512Z,101887.47
2023-04-30T22:09:04.544Z,101881.84
2023-04-30T22:14:07.904Z,101875.34
2023-04-30T22:19:12.272Z,101866.97
2023-04-30T22:24:15.487Z,101859.53
2023-04-30T22:29:19.700Z,101868.97
2023-04-30T22:34:24.526Z,101867.59
2023-04-30T22:39:27.629Z,101855.72
2023-04-30T22:44:31.192Z,101860.88
2023-04-30T22:49:37.078Z,101855.19
2023-04-30T22:54:40.312Z,101866.22
2023-04-30T22:59:43.200Z,101851.66
2023-04-30T23:04:47.551Z,101828.78
2023-04-30T23:09:51.119Z,101850.03
2023-04-30T23:14:54.350Z,101850.63
2023-04-30T23:19:58.957Z,101849.53
2023-04-30T23:25:01.904Z,101822.44
2023-04-30T23:30:05.641Z,101842.38
2023-04-30T23:35:10.616Z,101833.75
2023-04-30T23:40:15.134Z,101810.72
2023-04-30T23:45:18.384Z,101829.94
2023-04-30T23:50:22.641Z,101826.56
2023-04-30T23:55:25.614Z,101822.44
